Time;durP1;ratioP1;P1;durP2;ratioP2;P2;SDS_P1;SDS_P2;PMS_P1;PMS_P2;Temp;Humidity;BMP_temperature;BMP_pressure;BME280_temperature;BME280_humidity;BME280_pressure;Samples;Min_cycle;Max_cycle;Signal;HPM_P1;HPM_P2
2022/07/14 00:01:39;;;;;;;;;;;19.00;94.60;;;;;;5056279;28;19921;-75
2022/07/14 00:04:06;;;;;;;;;;;19.00;94.60;;;;;;5057509;28;19927;-76
2022/07/14 00:06:34;;;;;;;;;;;19.00;94.50;;;;;;5056982;28;19924;-75
2022/07/14 00:09:02;;;;;;;;;;;19.00;94.40;;;;;;5055058;28;19932;-75
2022/07/14 00:11:29;;;;;;;;;;;18.90;94.40;;;;;;5056282;28;19920;-75
2022/07/14 00:13:58;;;;;;;;;;;18.90;94.80;;;;;;5056026;28;19927;-75
2022/07/14 00:16:26;;;;;;;;;;;18.80;94.40;;;;;;5056402;28;19944;-75
2022/07/14 00:18:53;;;;;;;;;;;18.80;94.50;;;;;;5056519;28;19921;-75
2022/07/14 00:21:21;;;;;;;;;;;18.80;94.70;;;;;;5055717;28;19940;-75
2022/07/14 00:23:48;;;;;;;;;;;18.80;94.40;;;;;;5056832;28;19932;-75
2022/07/14 00:26:16;;;;;;;;;;;18.80;94.30;;;;;;5055796;28;19932;-75
2022/07/14 00:28:44;;;;;;;;;;;18.70;94.80;;;;;;5054599;28;19928;-75
2022/07/14 00:31:12;;;;;;;;;;;18.70;94.70;;;;;;5056301;28;20280;-75
2022/07/14 00:33:40;;;;;;;;;;;18.70;94.50;;;;;;5055458;28;19921;-75
2022/07/14 00:36:08;;;;;;;;;;;18.70;94.40;;;;;;5037034;28;19928;-75
2022/07/14 00:38:35;;;;;;;;;;;18.70;94.40;;;;;;5019472;28;20264;-76
2022/07/14 00:41:03;;;;;;;;;;;18.60;94.30;;;;;;5018019;28;19920;-75
2022/07/14 00:43:31;;;;;;;;;;;18.60;94.40;;;;;;5019723;28;19921;-75
2022/07/14 00:45:59;;;;;;;;;;;18.60;94.50;;;;;;5002641;28;19921;-75
2022/07/14 00:48:27;;;;;;;;;;;18.60;94.50;;;;;;5017860;28;19944;-75
2022/07/14 00:50:55;;;;;;;;;;;18.50;94.50;;;;;;5019206;28;19991;-75
2022/07/14 00:53:22;;;;;;;;;;;18.50;94.50;;;;;;5018988;28;19928;-76
2022/07/14 00:55:50;;;;;;;;;;;18.50;94.50;;;;;;5017756;28;19921;-75
2022/07/14 00:58:18;;;;;;;;;;;18.40;94.90;;;;;;5018996;28;19928;-75
2022/07/14 01:00:46;;;;;;;;;;;18.40;94.60;;;;;;5001336;28;19921;-75
2022/07/14 01:03:13;;;;;;;;;;;18.30;95.00;;;;;;5019102;28;19928;-75
2022/07/14 01:05:41;;;;;;;;;;;18.30;95.10;;;;;;5018843;28;20240;-75
2022/07/14 01:08:09;;;;;;;;;;;18.20;95.00;;;;;;5034499;28;19928;-76
2022/07/14 01:10:36;;;;;;;;;;;18.30;94.80;;;;;;5018635;28;19928;-75
2022/07/14 01:13:05;;;;;;;;;;;18.30;94.90;;;;;;5019047;28;20374;-75
2022/07/14 01:15:33;;;;;;;;;;;18.20;94.90;;;;;;5017499;28;19920;-75
2022/07/14 01:18:03;;;;;;;;;;;18.20;94.90;;;;;;5018429;28;19932;-75
2022/07/14 01:20:31;;;;;;;;;;;18.20;94.90;;;;;;5034860;28;19921;-75
2022/07/14 01:22:58;;;;;;;;;;;18.20;95.30;;;;;;5036109;28;19920;-75
2022/07/14 01:25:26;;;;;;;;;;;18.10;95.30;;;;;;4986079;28;19928;-75
2022/07/14 01:27:54;;;;;;;;;;;18.10;95.10;;;;;;5017209;28;19925;-75
2022/07/14 01:30:22;;;;;;;;;;;18.10;95.40;;;;;;5018476;28;19921;-75
2022/07/14 01:32:50;;;;;;;;;;;18.10;95.60;;;;;;5035558;28;19944;-75
2022/07/14 01:35:17;;;;;;;;;;;18.10;95.70;;;;;;5022224;28;19932;-75
2022/07/14 01:37:48;;;;;;;;;;;18.10;95.50;;;;;;5054580;28;19924;-75
2022/07/14 01:40:15;;;;;;;;;;;18.00;95.70;;;;;;5036804;28;19925;-75
2022/07/14 01:42:43;;;;;;;;;;;18.00;95.60;;;;;;5054418;28;19924;-75
2022/07/14 01:45:12;;;;;;;;;;;17.80;95.60;;;;;;5054828;28;19928;-75
2022/07/14 01:47:40;;;;;;;;;;;18.00;95.60;;;;;;5053248;28;19920;-75
2022/07/14 01:50:08;;;;;;;;;;;18.00;95.50;;;;;;5037987;28;19928;-75
2022/07/14 01:52:39;;;;;;;;;;;18.00;96.10;;;;;;5038225;28;19934;-75
2022/07/14 01:55:07;;;;;;;;;;;18.00;96.00;;;;;;5054316;28;19921;-75
2022/07/14 01:57:35;;;;;;;;;;;18.00;96.20;;;;;;5054207;28;19931;-75
2022/07/14 02:00:03;;;;;;;;;;;18.00;96.00;;;;;;5054374;28;19928;-75
2022/07/14 02:02:32;;;;;;;;;;;18.10;96.20;;;;;;5054789;28;20331;-76
2022/07/14 02:05:01;;;;;;;;;;;18.10;96.30;;;;;;5038105;28;19921;-75
2022/07/14 02:07:28;;;;;;;;;;;18.20;96.20;;;;;;5036746;28;19932;-75
2022/07/14 02:12:54;;;;;;;;;;;18.30;96.70;;;;;;5054375;28;19928;-75
2022/07/14 02:15:22;;;;;;;;;;;18.40;96.30;;;;;;5053130;28;19921;-75
2022/07/14 02:17:51;;;;;;;;;;;18.40;96.10;;;;;;5037901;28;19921;-75
2022/07/14 02:20:19;;;;;;;;;;;18.40;96.00;;;;;;5040179;28;19921;-75
2022/07/14 02:22:47;;;;;;;;;;;18.50;96.20;;;;;;5041805;28;19921;-75
2022/07/14 02:25:15;;;;;;;;;;;18.50;95.90;;;;;;5058367;28;20386;-75
2022/07/14 02:27:43;;;;;;;;;;;18.50;95.90;;;;;;5041018;28;19939;-75
2022/07/14 02:30:11;;;;;;;;;;;18.50;95.80;;;;;;5058979;28;19928;-75
2022/07/14 02:32:38;;;;;;;;;;;18.60;96.00;;;;;;5058156;28;19921;-75
2022/07/14 02:35:06;;;;;;;;;;;18.60;96.10;;;;;;5056801;28;19927;-75
2022/07/14 02:37:33;;;;;;;;;;;18.60;95.90;;;;;;5041159;28;20343;-75
2022/07/14 02:40:04;;;;;;;;;;;18.60;95.90;;;;;;5058339;28;19928;-75
2022/07/14 02:46:02;;;;;;;;;;;18.60;95.80;;;;;;5057723;28;19915;-75
2022/07/14 02:48:31;;;;;;;;;;;18.60;95.90;;;;;;5056672;28;20229;-75
2022/07/14 02:50:59;;;;;;;;;;;18.60;95.70;;;;;;5057789;28;19921;-75
2022/07/14 02:53:27;;;;;;;;;;;18.70;95.70;;;;;;5056941;28;19921;-75
2022/07/14 02:55:55;;;;;;;;;;;18.60;95.60;;;;;;5057994;28;19921;-76
2022/07/14 02:58:26;;;;;;;;;;;18.60;95.70;;;;;;5057484;28;19920;-75
2022/07/14 03:00:55;;;;;;;;;;;18.60;95.70;;;;;;5040440;28;19920;-75
2022/07/14 03:03:22;;;;;;;;;;;18.60;95.90;;;;;;5058960;28;19921;-75
2022/07/14 03:05:50;;;;;;;;;;;18.60;95.70;;;;;;5057638;28;19921;-75
2022/07/14 03:08:20;;;;;;;;;;;18.60;95.70;;;;;;5056466;28;19920;-75
2022/07/14 03:10:49;;;;;;;;;;;18.60;95.50;;;;;;5057369;28;19920;-75
2022/07/14 03:13:17;;;;;;;;;;;18.60;95.60;;;;;;5041204;28;19920;-75
2022/07/14 03:15:46;;;;;;;;;;;18.60;95.50;;;;;;5056181;28;19931;-75
2022/07/14 03:18:13;;;;;;;;;;;18.60;95.40;;;;;;5057552;28;19920;-75
2022/07/14 03:20:42;;;;;;;;;;;18.60;95.60;;;;;;5056086;28;19920;-75
2022/07/14 03:23:10;;;;;;;;;;;18.60;95.60;;;;;;5040625;28;20277;-75
2022/07/14 03:25:41;;;;;;;;;;;18.50;95.50;;;;;;5057211;28;20446;-75
2022/07/14 03:28:09;;;;;;;;;;;18.50;95.50;;;;;;5056134;28;19927;-75
2022/07/14 03:30:38;;;;;;;;;;;18.50;95.40;;;;;;5056657;28;19928;-75
2022/07/14 03:33:06;;;;;;;;;;;18.50;95.60;;;;;;5056838;28;19924;-75
2022/07/14 03:35:38;;;;;;;;;;;18.40;95.50;;;;;;5055746;28;19920;-75
2022/07/14 03:38:07;;;;;;;;;;;18.40;95.50;;;;;;5056758;28;20268;-75
2022/07/14 03:40:57;;;;;;;;;;;18.40;95.60;;;;;;5055642;28;19920;-74
2022/07/14 03:43:25;;;;;;;;;;;18.40;95.50;;;;;;5057127;28;19921;-75
2022/07/14 03:45:54;;;;;;;;;;;18.40;95.80;;;;;;5056838;28;19920;-75
2022/07/14 03:48:23;;;;;;;;;;;18.40;95.50;;;;;;5055395;28;19928;-75
2022/07/14 03:50:56;;;;;;;;;;;18.40;95.50;;;;;;5057254;28;19931;-75
2022/07/14 03:53:24;;;;;;;;;;;18.40;95.70;;;;;;5040225;28;19925;-75
2022/07/14 03:55:52;;;;;;;;;;;18.40;95.60;;;;;;5056373;28;19921;-75
2022/07/14 03:58:24;;;;;;;;;;;18.40;95.40;;;;;;5040946;28;19920;-75
2022/07/14 04:00:52;;;;;;;;;;;18.40;95.80;;;;;;5055239;28;19921;-75
2022/07/14 04:03:20;;;;;;;;;;;18.40;95.70;;;;;;5040279;28;19921;-75
2022/07/14 04:05:48;;;;;;;;;;;18.30;95.70;;;;;;5056136;28;20379;-75
2022/07/14 04:08:18;;;;;;;;;;;18.30;95.80;;;;;;5055378;28;20336;-75
2022/07/14 04:10:51;;;;;;;;;;;18.30;95.80;;;;;;5056473;28;19927;-75
2022/07/14 04:13:18;;;;;;;;;;;18.30;95.90;;;;;;5056109;28;20378;-75
2022/07/14 04:15:46;;;;;;;;;;;18.40;95.80;;;;;;5055802;28;19987;-75
2022/07/14 04:18:14;;;;;;;;;;;18.40;95.60;;;;;;5056579;28;20332;-75
2022/07/14 04:20:49;;;;;;;;;;;18.40;95.60;;;;;;5055151;28;19928;-75
2022/07/14 04:23:17;;;;;;;;;;;18.40;95.60;;;;;;5055932;28;19932;-75
2022/07/14 04:25:45;;;;;;;;;;;18.40;95.60;;;;;;5055930;28;20271;-75
2022/07/14 04:28:13;;;;;;;;;;;18.40;95.70;;;;;;5054672;28;19944;-75
2022/07/14 04:30:42;;;;;;;;;;;18.40;95.60;;;;;;5055801;28;19921;-75
2022/07/14 04:33:10;;;;;;;;;;;18.50;95.50;;;;;;5055865;28;19928;-75
2022/07/14 04:35:38;;;;;;;;;;;18.50;95.50;;;;;;5054610;28;20328;-75
2022/07/14 04:38:06;;;;;;;;;;;18.50;95.50;;;;;;5055993;28;19925;-76
2022/07/14 04:40:48;;;;;;;;;;;18.50;95.40;;;;;;5038040;28;19931;-75
2022/07/14 04:43:16;;;;;;;;;;;18.40;95.70;;;;;;5055739;28;19921;-75
2022/07/14 04:45:45;;;;;;;;;;;18.30;95.70;;;;;;5055475;28;19921;-75
2022/07/14 04:48:14;;;;;;;;;;;18.40;95.70;;;;;;5054291;28;19928;-75
2022/07/14 04:53:29;;;;;;;;;;;18.40;95.50;;;;;;5054773;28;20370;-76
2022/07/14 04:56:16;;;;;;;;;;;18.40;95.60;;;;;;5025470;28;19927;-75
2022/07/14 04:58:58;;;;;;;;;;;18.30;95.60;;;;;;5055406;28;19921;-75
2022/07/14 05:01:26;;;;;;;;;;;18.40;95.70;;;;;;5054087;28;19921;-75
2022/07/14 05:03:54;;;;;;;;;;;18.40;95.60;;;;;;5055196;28;19920;-76
2022/07/14 05:06:26;;;;;;;;;;;18.40;95.50;;;;;;5055553;28;20362;-75
2022/07/14 05:08:55;;;;;;;;;;;18.40;95.60;;;;;;5053909;28;19921;-76
2022/07/14 05:11:23;;;;;;;;;;;18.40;95.70;;;;;;5038749;28;19920;-75
2022/07/14 05:13:57;;;;;;;;;;;18.40;95.50;;;;;;5054056;28;19920;-75
2022/07/14 05:16:24;;;;;;;;;;;18.40;95.60;;;;;;5055828;28;19928;-75
2022/07/14 05:18:53;;;;;;;;;;;18.40;95.70;;;;;;5054946;28;19920;-76
2022/07/14 05:21:21;;;;;;;;;;;18.40;95.60;;;;;;5054024;28;19928;-76
2022/07/14 05:23:48;;;;;;;;;;;18.40;95.60;;;;;;5055009;28;19943;-76
2022/07/14 05:26:17;;;;;;;;;;;18.40;95.70;;;;;;5054931;28;20266;-75
2022/07/14 05:28:45;;;;;;;;;;;18.50;95.50;;;;;;5054379;28;20011;-75
2022/07/14 05:31:12;;;;;;;;;;;18.50;95.30;;;;;;5054705;28;19921;-75
2022/07/14 05:33:46;;;;;;;;;;;18.60;95.00;;;;;;5053604;28;20576;-75
2022/07/14 05:36:14;;;;;;;;;;;18.60;94.80;;;;;;5038169;28;19920;-75
2022/07/14 05:38:41;;;;;;;;;;;18.60;94.50;;;;;;5021920;28;19920;-75
2022/07/14 05:41:09;;;;;;;;;;;18.70;94.60;;;;;;5053223;28;19924;-75
2022/07/14 05:43:37;;;;;;;;;;;18.80;94.50;;;;;;5054538;28;19921;-76
2022/07/14 05:46:06;;;;;;;;;;;17.70;93.90;;;;;;5055509;28;19929;-75
2022/07/14 05:48:34;;;;;;;;;;;18.80;94.10;;;;;;5053520;28;19987;-76
2022/07/14 05:51:06;;;;;;;;;;;18.80;94.10;;;;;;5037959;28;19920;-75
2022/07/14 05:53:36;;;;;;;;;;;18.80;93.80;;;;;;5036575;28;19935;-75
2022/07/14 05:56:04;;;;;;;;;;;18.80;93.60;;;;;;5055106;28;19927;-76
2022/07/14 05:58:32;;;;;;;;;;;18.80;93.50;;;;;;5054229;28;19921;-76
2022/07/14 06:01:00;;;;;;;;;;;18.80;93.30;;;;;;5053104;28;19928;-75
2022/07/14 06:03:27;;;;;;;;;;;18.80;93.30;;;;;;5054282;28;19921;-76
2022/07/14 06:06:01;;;;;;;;;;;18.90;92.70;;;;;;5037530;28;19944;-76
2022/07/14 06:08:28;;;;;;;;;;;19.00;92.70;;;;;;5054121;28;19924;-76
2022/07/14 06:10:57;;;;;;;;;;;19.00;92.50;;;;;;5053981;28;19920;-75
2022/07/14 06:13:25;;;;;;;;;;;19.00;92.10;;;;;;5037873;28;19921;-76
2022/07/14 06:15:54;;;;;;;;;;;19.00;92.00;;;;;;5054284;28;19928;-76
2022/07/14 06:18:22;;;;;;;;;;;19.10;91.90;;;;;;5037722;28;19920;-76
2022/07/14 06:20:50;;;;;;;;;;;19.10;90.70;;;;;;5052933;28;19928;-76
2022/07/14 06:23:18;;;;;;;;;;;19.10;90.30;;;;;;5038001;28;19924;-75
2022/07/14 06:25:45;;;;;;;;;;;19.00;90.50;;;;;;5037864;28;19921;-75
2022/07/14 06:28:19;;;;;;;;;;;19.00;90.30;;;;;;5053006;28;19925;-77
2022/07/14 06:30:46;;;;;;;;;;;19.10;90.30;;;;;;5053732;28;19925;-76
2022/07/14 06:33:14;;;;;;;;;;;19.10;89.90;;;;;;5037419;28;20343;-75
2022/07/14 06:35:43;;;;;;;;;;;19.10;89.70;;;;;;5036267;28;19921;-76
2022/07/14 06:38:31;;;;;;;;;;;19.10;89.60;;;;;;5024302;28;19920;-75
2022/07/14 06:41:00;;;;;;;;;;;19.10;88.80;;;;;;5052701;28;19921;-76
2022/07/14 06:43:30;;;;;;;;;;;19.20;89.20;;;;;;5053970;28;19920;-76
2022/07/14 06:45:59;;;;;;;;;;;18.80;89.00;;;;;;5054426;28;20267;-75
2022/07/14 06:48:27;;;;;;;;;;;19.30;88.60;;;;;;5052987;28;19947;-77
2022/07/14 06:51:00;;;;;;;;;;;19.30;88.60;;;;;;5053464;28;20263;-76
2022/07/14 06:53:28;;;;;;;;;;;19.30;88.40;;;;;;5052716;28;19924;-75
2022/07/14 06:55:55;;;;;;;;;;;19.30;88.40;;;;;;5053140;28;19921;-76
2022/07/14 06:58:23;;;;;;;;;;;19.20;87.50;;;;;;5054177;28;19921;-75
2022/07/14 07:00:50;;;;;;;;;;;19.20;88.30;;;;;;5053111;28;20253;-76
2022/07/14 07:03:17;;;;;;;;;;;19.10;88.20;;;;;;5054319;28;19920;-75
2022/07/14 07:08:31;;;;;;;;;;;18.90;87.90;;;;;;5056543;28;19920;-75
2022/07/14 07:10:59;;;;;;;;;;;18.90;88.00;;;;;;5057018;28;19932;-75
2022/07/14 07:13:29;;;;;;;;;;;18.80;88.20;;;;;;5057595;28;19921;-75
2022/07/14 07:16:02;;;;;;;;;;;18.70;87.80;;;;;;5057085;28;19921;-75
2022/07/14 07:18:30;;;;;;;;;;;18.80;87.30;;;;;;5056980;28;19928;-75
2022/07/14 07:20:57;;;;;;;;;;;18.80;87.30;;;;;;5056644;28;20244;-74
2022/07/14 07:23:25;;;;;;;;;;;18.80;87.40;;;;;;5056609;28;19921;-77
2022/07/14 07:25:54;;;;;;;;;;;18.90;87.20;;;;;;5056819;28;20263;-80
2022/07/14 07:28:21;;;;;;;;;;;18.90;86.00;;;;;;5056210;28;19931;-82
2022/07/14 07:30:48;;;;;;;;;;;19.00;86.00;;;;;;5057871;28;20287;-81
2022/07/14 07:33:16;;;;;;;;;;;19.00;85.00;;;;;;5040550;28;20355;-80
2022/07/14 07:35:46;;;;;;;;;;;19.10;85.10;;;;;;5055314;28;20378;-81
2022/07/14 07:38:13;;;;;;;;;;;19.10;84.40;;;;;;5057365;28;19995;-81
2022/07/14 07:40:41;;;;;;;;;;;19.10;84.00;;;;;;5039088;28;19921;-78
2022/07/14 07:43:09;;;;;;;;;;;19.10;83.60;;;;;;5056920;28;19940;-80
2022/07/14 07:45:39;;;;;;;;;;;19.20;83.50;;;;;;5057626;28;19946;-82
2022/07/14 07:48:07;;;;;;;;;;;19.70;83.30;;;;;;5056474;28;19921;-80
2022/07/14 07:50:35;;;;;;;;;;;19.10;83.20;;;;;;5057364;28;19921;-78
2022/07/14 07:53:04;;;;;;;;;;;19.10;83.50;;;;;;5057478;28;19932;-78
2022/07/14 07:55:41;;;;;;;;;;;19.00;83.40;;;;;;5055719;28;19921;-78
2022/07/14 07:58:08;;;;;;;;;;;19.10;82.60;;;;;;5056817;28;19920;-72
2022/07/14 08:00:36;;;;;;;;;;;18.50;82.90;;;;;;5047568;28;19932;-73
2022/07/14 08:03:04;;;;;;;;;;;19.00;81.70;;;;;;5053952;28;20259;-75
2022/07/14 08:05:32;;;;;;;;;;;19.00;82.00;;;;;;5048211;28;19927;-76
2022/07/14 08:08:19;;;;;;;;;;;19.00;81.40;;;;;;5054831;28;19928;-75
2022/07/14 08:10:46;;;;;;;;;;;19.00;81.90;;;;;;5056989;28;20358;-76
2022/07/14 08:13:14;;;;;;;;;;;19.00;81.70;;;;;;5056141;28;19920;-74
2022/07/14 08:15:41;;;;;;;;;;;19.00;81.00;;;;;;5054512;28;19921;-74
2022/07/14 08:18:09;;;;;;;;;;;19.10;80.50;;;;;;5056088;28;19932;-74
2022/07/14 08:20:37;;;;;;;;;;;19.20;80.10;;;;;;5055207;28;19921;-74
2022/07/14 08:23:04;;;;;;;;;;;19.20;79.70;;;;;;5056115;28;20287;-74
2022/07/14 08:25:33;;;;;;;;;;;19.10;79.20;;;;;;5057434;28;19921;-74
2022/07/14 08:28:00;;;;;;;;;;;19.20;79.40;;;;;;5055760;28;19920;-75
2022/07/14 08:30:27;;;;;;;;;;;19.20;80.20;;;;;;5056832;28;19921;-74
2022/07/14 08:32:55;;;;;;;;;;;19.20;79.70;;;;;;5055664;28;19932;-74
2022/07/14 08:35:24;;;;;;;;;;;19.30;79.70;;;;;;5054588;28;19920;-74
2022/07/14 08:37:52;;;;;;;;;;;19.30;78.30;;;;;;5056542;28;19921;-74
2022/07/14 08:40:20;;;;;;;;;;;19.30;77.50;;;;;;5055379;28;19920;-74
2022/07/14 08:42:50;;;;;;;;;;;19.40;77.70;;;;;;5055847;28;19935;-74
2022/07/14 08:45:19;;;;;;;;;;;19.40;77.30;;;;;;5056428;28;19920;-74
2022/07/14 08:47:47;;;;;;;;;;;19.40;78.30;;;;;;5055236;28;19921;-74
2022/07/14 08:50:16;;;;;;;;;;;19.50;77.40;;;;;;5056194;28;20370;-74
2022/07/14 08:52:44;;;;;;;;;;;19.50;77.40;;;;;;5055575;28;19920;-74
2022/07/14 08:55:13;;;;;;;;;;;19.60;76.90;;;;;;5054410;28;19927;-74
2022/07/14 08:57:41;;;;;;;;;;;19.70;76.60;;;;;;5056068;28;19924;-74
2022/07/14 09:00:11;;;;;;;;;;;19.80;75.80;;;;;;5055149;28;19920;-74
2022/07/14 09:02:39;;;;;;;;;;;19.80;75.80;;;;;;5055362;28;19920;-74
2022/07/14 09:05:27;;;;;;;;;;;19.80;75.50;;;;;;5055724;28;19920;-74
2022/07/14 09:07:58;;;;;;;;;;;19.90;75.80;;;;;;5053979;28;19921;-76
2022/07/14 09:10:27;;;;;;;;;;;19.90;75.00;;;;;;5055185;28;20291;-75
2022/07/14 09:13:14;;;;;;;;;;;19.90;75.60;;;;;;5056005;28;19928;-75
2022/07/14 09:15:44;;;;;;;;;;;20.00;74.30;;;;;;5053670;28;19925;-75
2022/07/14 09:18:18;;;;;;;;;;;20.00;74.30;;;;;;5056365;28;19988;-74
2022/07/14 09:20:46;;;;;;;;;;;20.00;73.80;;;;;;5055004;28;19920;-74
2022/07/14 09:23:14;;;;;;;;;;;20.10;72.90;;;;;;5055183;28;19920;-74
2022/07/14 09:25:41;;;;;;;;;;;20.20;72.90;;;;;;5055565;28;19928;-74
2022/07/14 09:28:09;;;;;;;;;;;20.30;72.90;;;;;;5053270;28;19929;-74
2022/07/14 09:30:36;;;;;;;;;;;20.30;73.60;;;;;;5055187;28;20331;-74
2022/07/14 09:33:04;;;;;;;;;;;20.40;73.60;;;;;;5038528;28;20023;-74
2022/07/14 09:35:33;;;;;;;;;;;20.50;73.20;;;;;;5053298;28;19932;-74
2022/07/14 09:38:20;;;;;;;;;;;20.60;74.60;;;;;;5054812;28;19925;-74
2022/07/14 09:40:48;;;;;;;;;;;20.60;73.10;;;;;;5054256;28;19928;-73
2022/07/14 09:43:16;;;;;;;;;;;20.70;70.30;;;;;;5054318;28;19921;-74
2022/07/14 09:45:45;;;;;;;;;;;20.70;71.90;;;;;;5055208;28;19920;-74
2022/07/14 09:48:19;;;;;;;;;;;20.70;71.50;;;;;;5054015;28;19921;-73
2022/07/14 09:50:54;;;;;;;;;;;20.70;71.80;;;;;;5055188;28;19921;-69
2022/07/14 09:53:23;;;;;;;;;;;20.70;71.90;;;;;;5054868;28;19925;-73
2022/07/14 09:55:59;;;;;;;;;;;20.80;70.40;;;;;;5053012;28;19928;-75
2022/07/14 09:58:31;;;;;;;;;;;20.80;70.50;;;;;;5054030;28;19927;-74
2022/07/14 10:01:08;;;;;;;;;;;20.80;72.00;;;;;;5053818;28;19921;-74
2022/07/14 10:03:39;;;;;;;;;;;20.90;71.30;;;;;;5053974;28;19925;-73
2022/07/14 10:06:08;;;;;;;;;;;21.10;70.50;;;;;;5054862;28;20406;-74
2022/07/14 10:08:57;;;;;;;;;;;21.20;69.50;;;;;;5053687;28;19924;-71
2022/07/14 10:11:29;;;;;;;;;;;21.40;68.00;;;;;;5053674;28;20364;-72
2022/07/14 10:13:57;;;;;;;;;;;21.50;69.30;;;;;;5053588;28;19921;-70
2022/07/14 10:16:34;;;;;;;;;;;21.70;69.00;;;;;;5054710;28;19928;-68
2022/07/14 10:19:03;;;;;;;;;;;21.80;67.40;;;;;;5054744;28;19921;-72
2022/07/14 10:21:39;;;;;;;;;;;21.90;67.40;;;;;;5052545;28;20359;-74
2022/07/14 10:24:07;;;;;;;;;;;22.10;66.20;;;;;;5053804;28;19921;-74
2022/07/14 10:26:36;;;;;;;;;;;22.20;66.80;;;;;;5053756;28;19928;-74
2022/07/14 10:29:04;;;;;;;;;;;22.40;66.20;;;;;;5052998;28;19920;-75
2022/07/14 10:31:44;;;;;;;;;;;22.50;64.50;;;;;;5054056;28;19924;-74
2022/07/14 10:34:30;;;;;;;;;;;22.60;65.70;;;;;;5050225;28;19921;-73
2022/07/14 10:37:04;;;;;;;;;;;22.70;65.30;;;;;;5017161;28;19921;-74
2022/07/14 10:39:45;;;;;;;;;;;22.80;64.90;;;;;;5034933;28;20267;-75
2022/07/14 10:42:30;;;;;;;;;;;22.80;64.80;;;;;;5037532;28;19921;-74
2022/07/14 10:45:00;;;;;;;;;;;22.80;65.00;;;;;;4988850;28;19921;-77
2022/07/14 10:47:48;;;;;;;;;;;22.80;64.30;;;;;;5037289;28;19925;-74
2022/07/14 10:50:21;;;;;;;;;;;22.80;64.70;;;;;;5038161;28;19921;-74
2022/07/14 10:52:49;;;;;;;;;;;23.00;64.70;;;;;;5021100;28;20359;-75
2022/07/14 10:55:38;;;;;;;;;;;22.80;64.00;;;;;;5037401;28;19996;-75
2022/07/14 10:58:06;;;;;;;;;;;22.80;63.50;;;;;;5020925;28;19932;-75
2022/07/14 11:03:17;;;;;;;;;;;22.80;62.70;;;;;;5038147;28;19944;-74
2022/07/14 11:06:03;;;;;;;;;;;22.90;64.00;;;;;;5037827;28;20351;-74
2022/07/14 11:09:10;;;;;;;;;;;22.90;63.60;;;;;;5021305;28;19921;-75
2022/07/14 11:11:58;;;;;;;;;;;22.90;64.30;;;;;;5023387;28;19928;-76
2022/07/14 11:14:25;;;;;;;;;;;22.70;63.00;;;;;;5022583;28;19921;-74
2022/07/14 11:16:55;;;;;;;;;;;21.90;63.20;;;;;;5039951;28;19921;-74
2022/07/14 11:19:35;;;;;;;;;;;22.40;64.50;;;;;;5022192;28;19925;-76
2022/07/14 11:22:09;;;;;;;;;;;22.20;64.90;;;;;;5021097;28;19936;-73
2022/07/14 11:24:49;;;;;;;;;;;22.10;64.60;;;;;;5022363;28;19921;-74
2022/07/14 11:27:27;;;;;;;;;;;22.00;64.90;;;;;;5038489;28;19992;-76
2022/07/14 11:30:15;;;;;;;;;;;22.00;63.90;;;;;;5022493;28;19921;-75
2022/07/14 11:32:43;;;;;;;;;;;22.00;64.10;;;;;;5023082;28;19932;-74
2022/07/14 11:38:01;;;;;;;;;;;22.00;63.90;;;;;;5037758;28;20386;-73
2022/07/14 11:40:42;;;;;;;;;;;22.00;64.10;;;;;;5019772;28;19925;-73
2022/07/14 11:43:28;;;;;;;;;;;22.10;64.00;;;;;;5038179;28;19921;-73
2022/07/14 11:45:56;;;;;;;;;;;22.10;64.60;;;;;;5037465;28;19928;-73
2022/07/14 11:48:28;;;;;;;;;;;22.20;63.80;;;;;;5018574;28;19920;-72
2022/07/14 11:51:03;;;;;;;;;;;22.30;63.10;;;;;;5037355;28;19921;-73
2022/07/14 11:53:31;;;;;;;;;;;22.30;62.50;;;;;;5019268;28;19921;-73
2022/07/14 11:56:02;;;;;;;;;;;22.40;62.20;;;;;;5037371;28;19928;-73
2022/07/14 11:58:30;;;;;;;;;;;22.40;62.80;;;;;;5003588;28;20360;-73
2022/07/14 12:00:59;;;;;;;;;;;22.40;61.50;;;;;;5018505;28;20298;-75
2022/07/14 12:03:27;;;;;;;;;;;22.40;62.20;;;;;;5019782;28;19932;-74
2022/07/14 12:05:56;;;;;;;;;;;22.50;61.50;;;;;;5037051;28;19921;-74
2022/07/14 12:08:24;;;;;;;;;;;22.50;61.90;;;;;;5035828;28;19925;-74
2022/07/14 12:10:52;;;;;;;;;;;22.60;60.90;;;;;;5036915;28;19932;-75
2022/07/14 12:13:20;;;;;;;;;;;22.60;59.40;;;;;;5019653;28;19921;-74
2022/07/14 12:15:48;;;;;;;;;;;22.60;60.00;;;;;;5035747;28;19921;-75
2022/07/14 12:18:15;;;;;;;;;;;22.70;59.20;;;;;;5019591;28;19928;-74
2022/07/14 12:20:44;;;;;;;;;;;22.80;63.30;;;;;;4998597;28;19936;-73
2022/07/14 12:23:12;;;;;;;;;;;22.70;60.70;;;;;;5033298;28;19925;-79
2022/07/14 12:25:43;;;;;;;;;;;22.30;60.80;;;;;;5017931;28;19921;-78
2022/07/14 12:28:12;;;;;;;;;;;22.10;61.50;;;;;;5032278;28;20359;-79
2022/07/14 12:30:43;;;;;;;;;;;21.90;60.80;;;;;;5035159;28;19921;-81
2022/07/14 12:33:32;;;;;;;;;;;21.80;61.50;;;;;;5036569;28;19929;-80
2022/07/14 12:36:00;;;;;;;;;;;21.70;61.90;;;;;;5036088;28;19920;-80
2022/07/14 12:38:29;;;;;;;;;;;21.80;59.30;;;;;;5056516;28;19920;-80
2022/07/14 12:40:59;;;;;;;;;;;21.90;59.90;;;;;;5055504;28;19984;-79
2022/07/14 12:43:36;;;;;;;;;;;21.90;59.40;;;;;;5055742;28;19928;-79
2022/07/14 12:46:09;;;;;;;;;;;22.10;60.00;;;;;;5056340;28;19992;-76
2022/07/14 12:48:49;;;;;;;;;;;22.30;60.40;;;;;;5054627;28;19920;-76
2022/07/14 12:51:36;;;;;;;;;;;22.40;59.20;;;;;;5055784;28;19921;-76
2022/07/14 12:54:04;;;;;;;;;;;22.50;60.00;;;;;;5053641;28;19920;-76
2022/07/14 12:56:33;;;;;;;;;;;22.70;59.10;;;;;;5055579;28;19936;-76
2022/07/14 12:59:02;;;;;;;;;;;22.90;58.90;;;;;;5055592;28;19932;-76
2022/07/14 13:01:30;;;;;;;;;;;23.00;58.10;;;;;;5054496;28;19920;-76
2022/07/14 13:03:59;;;;;;;;;;;23.10;57.70;;;;;;5055236;28;19920;-77
2022/07/14 13:06:27;;;;;;;;;;;23.30;57.60;;;;;;5055256;28;19921;-77
2022/07/14 13:08:55;;;;;;;;;;;23.50;58.00;;;;;;5054784;28;19932;-76
2022/07/14 13:11:27;;;;;;;;;;;23.50;57.00;;;;;;5055929;28;19925;-77
2022/07/14 13:13:54;;;;;;;;;;;23.60;56.20;;;;;;5055018;28;19921;-75
2022/07/14 13:16:24;;;;;;;;;;;23.70;57.10;;;;;;5038469;28;19920;-76
2022/07/14 13:19:08;;;;;;;;;;;23.70;55.90;;;;;;5055254;28;19932;-76
2022/07/14 13:21:50;;;;;;;;;;;23.70;56.20;;;;;;5055030;28;19921;-76
2022/07/14 13:24:19;;;;;;;;;;;23.80;57.10;;;;;;5054797;28;20378;-76
2022/07/14 13:27:00;;;;;;;;;;;24.00;57.20;;;;;;5055092;28;20275;-77
2022/07/14 13:29:29;;;;;;;;;;;24.20;57.70;;;;;;5055875;28;20328;-77
2022/07/14 13:31:57;;;;;;;;;;;24.50;57.60;;;;;;5055423;28;19924;-76
2022/07/14 13:34:25;;;;;;;;;;;24.60;55.20;;;;;;5053726;28;20271;-76
2022/07/14 13:36:54;;;;;;;;;;;24.60;55.20;;;;;;5055482;28;20271;-76
2022/07/14 13:39:22;;;;;;;;;;;24.60;55.50;;;;;;5054990;28;19920;-75
2022/07/14 13:41:54;;;;;;;;;;;24.70;54.90;;;;;;5037685;28;19924;-76
2022/07/14 13:44:22;;;;;;;;;;;24.80;55.10;;;;;;5055356;28;19921;-76
2022/07/14 13:46:50;;;;;;;;;;;24.80;55.40;;;;;;5053652;28;19932;-76
2022/07/14 13:49:17;;;;;;;;;;;24.80;54.30;;;;;;5055103;28;19940;-69
2022/07/14 13:54:33;;;;;;;;;;;25.10;55.40;;;;;;5034598;28;19921;-68
2022/07/14 13:57:00;;;;;;;;;;;25.40;55.00;;;;;;5035262;28;20263;-68
2022/07/14 13:59:28;;;;;;;;;;;25.70;54.50;;;;;;5034245;28;20352;-69
2022/07/14 14:01:55;;;;;;;;;;;25.60;53.20;;;;;;5034064;28;20271;-68
2022/07/14 14:04:23;;;;;;;;;;;25.60;54.00;;;;;;5035341;28;20275;-69
2022/07/14 14:06:51;;;;;;;;;;;25.50;53.90;;;;;;5034013;28;19921;-69
2022/07/14 14:09:19;;;;;;;;;;;25.50;53.60;;;;;;5034952;28;19928;-68
2022/07/14 14:11:47;;;;;;;;;;;25.60;54.00;;;;;;5035058;28;19921;-68
2022/07/14 14:14:14;;;;;;;;;;;25.60;54.90;;;;;;5032960;28;20287;-69
2022/07/14 14:16:42;;;;;;;;;;;25.70;54.40;;;;;;5034867;28;20382;-67
2022/07/14 14:19:18;;;;;;;;;;;25.60;53.20;;;;;;5035098;28;19921;-68
2022/07/14 14:21:48;;;;;;;;;;;25.60;53.60;;;;;;5033762;28;19921;-69
2022/07/14 14:24:17;;;;;;;;;;;25.70;53.70;;;;;;5034879;28;19921;-68
2022/07/14 14:26:46;;;;;;;;;;;25.90;53.00;;;;;;5035239;28;19924;-68
2022/07/14 14:29:14;;;;;;;;;;;26.30;53.10;;;;;;5033941;28;19925;-68
2022/07/14 14:31:43;;;;;;;;;;;26.50;53.00;;;;;;5035042;28;19930;-67
2022/07/14 14:34:10;;;;;;;;;;;26.70;53.20;;;;;;5030152;28;19922;-68
2022/07/14 14:36:38;;;;;;;;;;;27.00;52.60;;;;;;4997821;28;19965;-68
2022/07/14 14:39:05;;;;;;;;;;;27.30;51.90;;;;;;5022810;28;19921;-69
2022/07/14 14:41:33;;;;;;;;;;;27.40;52.10;;;;;;5033909;28;19921;-69
2022/07/14 14:44:00;;;;;;;;;;;27.60;52.40;;;;;;5033713;28;19921;-66
2022/07/14 14:46:28;;;;;;;;;;;27.90;51.60;;;;;;5017481;28;19928;-71
2022/07/14 14:48:56;;;;;;;;;;;27.90;51.50;;;;;;5033819;28;19924;-73
2022/07/14 14:51:23;;;;;;;;;;;27.80;51.50;;;;;;5017990;28;19921;-73
2022/07/14 14:53:51;;;;;;;;;;;27.80;51.50;;;;;;5033733;28;20355;-69